createdAt,value
2022-12-09T00:04:38.625Z,99820.00
2022-12-09T00:14:38.465Z,99813.00
2022-12-09T00:24:38.642Z,99809.00
2022-12-09T00:34:40.071Z,99807.00
2022-12-09T00:44:40.521Z,99805.00
2022-12-09T00:54:41.474Z,99805.00
2022-12-09T01:04:41.802Z,99805.00
2022-12-09T01:14:42.655Z,99803.00
2022-12-09T01:24:42.657Z,99803.00
2022-12-09T01:34:42.518Z,99809.00
2022-12-09T01:44:42.622Z,99813.00
2022-12-09T01:54:42.632Z,99815.00
2022-12-09T02:04:44.606Z,99809.00
2022-12-09T02:14:46.087Z,99805.00
2022-12-09T02:24:47.105Z,99795.00
2022-12-09T02:34:48.279Z,99785.00
2022-12-09T02:44:48.906Z,99785.00
2022-12-09T02:54:49.462Z,99777.00
2022-12-09T03:04:49.938Z,99773.00
2022-12-09T03:14:50.789Z,99761.00
2022-12-09T03:24:51.010Z,99757.00
2022-12-09T03:34:50.735Z,99753.00
2022-12-09T03:44:50.681Z,99749.00
2022-12-09T03:54:50.818Z,99743.00
2022-12-09T04:04:51.228Z,99739.00
2022-12-09T04:14:52.001Z,99732.00
2022-12-09T04:24:53.046Z,99730.00
2022-12-09T04:34:54.306Z,99724.00
2022-12-09T04:44:55.051Z,99722.00
2022-12-09T04:54:54.739Z,99720.00
2022-12-09T05:04:54.997Z,99718.00
2022-12-09T05:14:55.847Z,99716.00
2022-12-09T05:24:56.019Z,99718.00
2022-12-09T05:34:55.916Z,99712.00
2022-12-09T05:44:56.450Z,99708.00
2022-12-09T05:54:56.962Z,99704.00
2022-12-09T06:04:58.040Z,99692.00
2022-12-09T06:14:57.878Z,99690.00
2022-12-09T06:24:57.917Z,99685.00
2022-12-09T06:34:58.198Z,99681.00
2022-12-09T06:44:58.882Z,99679.00
2022-12-09T06:54:59.325Z,99679.00
2022-12-09T07:05:00.157Z,99683.00
2022-12-09T07:15:01.341Z,99690.00
2022-12-09T07:25:02.175Z,99690.00
2022-12-09T07:35:03.234Z,99698.00
2022-12-09T07:45:04.032Z,99706.00
2022-12-09T07:55:05.532Z,99714.00
2022-12-09T08:05:07.047Z,99718.00
2022-12-09T08:15:08.365Z,99726.00
2022-12-09T08:25:09.886Z,99730.00
2022-12-09T08:35:12.759Z,99730.00
2022-12-09T08:45:13.218Z,99732.00
2022-12-09T08:55:13.382Z,99730.00
2022-12-09T09:05:14.543Z,99730.00
2022-12-09T09:15:17.532Z,99735.00
2022-12-09T09:25:21.190Z,99741.00
2022-12-09T09:35:21.469Z,99747.00
2022-12-09T09:45:25.565Z,99749.00
2022-12-09T09:55:26.533Z,99747.00
2022-12-09T10:05:27.333Z,99741.00
2022-12-09T10:15:28.556Z,99735.00
2022-12-09T10:25:29.305Z,99732.00
2022-12-09T10:35:29.787Z,99724.00
2022-12-09T10:45:52.694Z,99714.00
2022-12-09T10:55:32.247Z,99708.00
2022-12-09T11:05:33.742Z,99704.00
2022-12-09T11:15:34.771Z,99700.00
2022-12-09T11:25:35.361Z,99692.00
2022-12-09T11:35:34.957Z,99690.00
2022-12-09T11:45:35.203Z,99686.00
2022-12-09T11:55:35.250Z,99677.00
2022-12-09T12:05:35.328Z,99671.00
2022-12-09T12:15:35.287Z,99671.00
2022-12-09T12:25:35.254Z,99665.00
2022-12-09T12:35:35.478Z,99655.00
2022-12-09T12:45:55.109Z,99647.00
2022-12-09T12:55:55.317Z,99645.00
2022-12-09T13:05:55.264Z,99638.00
2022-12-09T13:15:55.433Z,99630.00
2022-12-09T13:25:56.600Z,99628.00
2022-12-09T13:35:56.307Z,99620.00
2022-12-09T13:45:56.427Z,99622.00
2022-12-09T13:55:56.356Z,99626.00
2022-12-09T14:05:56.364Z,99626.00
2022-12-09T14:15:56.375Z,99630.00
2022-12-09T14:25:56.374Z,99632.00
2022-12-09T14:35:56.675Z,99638.00
2022-12-09T14:45:57.804Z,99641.00
2022-12-09T14:56:00.669Z,99641.00
2022-12-09T15:06:02.648Z,99641.00
2022-12-09T15:16:02.505Z,99649.00
2022-12-09T15:26:02.475Z,99653.00
2022-12-09T15:36:02.490Z,99663.00
2022-12-09T15:46:02.510Z,99673.00
2022-12-09T15:56:05.356Z,99679.00
2022-12-09T16:06:05.519Z,99675.00
2022-12-09T16:16:05.605Z,99681.00
2022-12-09T16:26:07.860Z,99685.00
2022-12-09T16:36:09.651Z,99686.00
2022-12-09T16:46:09.577Z,99688.00
2022-12-09T16:56:09.596Z,99686.00
2022-12-09T17:06:09.676Z,99690.00
2022-12-09T17:16:09.696Z,99696.00
2022-12-09T17:26:09.767Z,99702.00
2022-12-09T17:36:10.221Z,99710.00
2022-12-09T17:46:10.637Z,99720.00
2022-12-09T17:56:10.615Z,99722.00
2022-12-09T18:06:10.650Z,99730.00
2022-12-09T18:16:10.756Z,99741.00
2022-12-09T18:26:10.626Z,99749.00
2022-12-09T18:36:10.697Z,99759.00
2022-12-09T18:46:10.837Z,99771.00
2022-12-09T18:56:10.706Z,99773.00
2022-12-09T19:06:10.732Z,99779.00
2022-12-09T19:16:10.798Z,99787.00
2022-12-09T19:26:10.718Z,99795.00
2022-12-09T19:36:10.849Z,99799.00
2022-12-09T19:46:10.784Z,99803.00
2022-12-09T19:56:10.759Z,99809.00
2022-12-09T20:06:10.860Z,99813.00
2022-12-09T20:16:10.821Z,99817.00
2022-12-09T20:26:10.836Z,99820.00
2022-12-09T20:36:10.864Z,99828.00
2022-12-09T20:46:10.855Z,99830.00
2022-12-09T20:56:10.837Z,99832.00
2022-12-09T21:06:10.980Z,99834.00
2022-12-09T21:16:11.942Z,99832.00
2022-12-09T21:26:11.956Z,99836.00
2022-12-09T21:36:13.729Z,99832.00
2022-12-09T21:46:14.146Z,99838.00
2022-12-09T21:56:15.287Z,99840.00
2022-12-09T22:06:15.875Z,99840.00
2022-12-09T22:16:16.058Z,99844.00
2022-12-09T22:26:15.959Z,99844.00
2022-12-09T22:36:15.935Z,99852.00
2022-12-09T22:46:15.990Z,99862.00
2022-12-09T22:56:16.218Z,99864.00
2022-12-09T23:06:15.973Z,99865.00
2022-12-09T23:16:16.177Z,99862.00
2022-12-09T23:26:15.944Z,99865.00
2022-12-09T23:36:16.014Z,99873.00
2022-12-09T23:46:16.455Z,99879.00
2022-12-09T23:56:17.913Z,99887.00
